Time;durP1;ratioP1;P1;durP2;ratioP2;P2;SDS_P1;SDS_P2;PMS_P1;PMS_P2;Temp;Humidity;BMP_temperature;BMP_pressure;BME280_temperature;BME280_humidity;BME280_pressure;Samples;Min_cycle;Max_cycle;Signal;HPM_P1;HPM_P2
2023/01/16 00:04:36;;;;;;;3.35;1.10;;;;;;;3.80;100.00;99072.03;20678950;28;20064;-77
2023/01/16 00:14:38;;;;;;;4.40;1.02;;;;;;;3.79;100.00;99065.13;20692694;28;20058;-77
2023/01/16 00:24:39;;;;;;;5.47;0.85;;;;;;;3.71;100.00;99046.22;20691605;28;20054;-76
2023/01/16 00:34:40;;;;;;;6.50;0.90;;;;;;;3.64;100.00;99034.19;20690199;28;20058;-78
2023/01/16 00:44:42;;;;;;;5.03;1.00;;;;;;;3.58;100.00;98997.16;20692968;28;20053;-79
2023/01/16 00:54:43;;;;;;;7.75;0.90;;;;;;;3.41;100.00;98974.94;20691069;28;20066;-80
2023/01/16 01:04:44;;;;;;;4.68;1.00;;;;;;;3.47;100.00;98954.16;20702642;28;20054;-77
2023/01/16 01:14:45;;;;;;;7.22;1.20;;;;;;;3.46;100.00;98948.13;20692100;28;20049;-79
2023/01/16 01:24:47;;;;;;;7.07;1.05;;;;;;;3.46;100.00;98937.78;20695245;28;20437;-79
2023/01/16 01:34:48;;;;;;;6.63;1.25;;;;;;;3.54;100.00;98898.88;20681153;28;20050;-77
2023/01/16 01:44:49;;;;;;;9.02;1.48;;;;;;;3.57;100.00;98880.72;20702602;28;20097;-79
2023/01/16 01:54:51;;;;;;;5.95;1.00;;;;;;;3.55;100.00;98846.25;20698793;28;20049;-78
2023/01/16 02:04:56;;;;;;;3.85;0.88;;;;;;;3.68;100.00;98834.00;20705948;28;20050;-78
2023/01/16 02:14:58;;;;;;;4.40;1.02;;;;;;;3.72;100.00;98826.19;20679968;28;20582;-78
2023/01/16 02:24:59;;;;;;;4.28;0.80;;;;;;;3.99;100.00;98787.84;20686260;28;20060;-78
2023/01/16 02:35:01;;;;;;;6.13;1.45;;;;;;;4.19;100.00;98765.06;20691861;28;20054;-77
2023/01/16 02:45:03;;;;;;;5.85;1.00;;;;;;;4.35;100.00;98730.25;20685464;28;20042;-78
2023/01/16 02:55:05;;;;;;;4.00;1.00;;;;;;;4.38;100.00;98704.28;20686305;28;20149;-78
2023/01/16 03:05:06;;;;;;;4.43;0.80;;;;;;;4.50;100.00;98677.28;20684945;28;20144;-81
2023/01/16 03:15:08;;;;;;;3.28;0.60;;;;;;;4.54;100.00;98644.38;20690283;28;20168;-75
2023/01/16 03:25:09;;;;;;;4.80;0.98;;;;;;;4.53;100.00;98621.94;20675674;28;20072;-80
2023/01/16 03:35:11;;;;;;;8.07;1.00;;;;;;;4.40;100.00;98597.16;20688365;28;20054;-77
2023/01/16 03:45:12;;;;;;;6.75;1.25;;;;;;;4.06;100.00;98566.72;20693343;28;20115;-80
2023/01/16 03:55:13;;;;;;;3.33;0.90;;;;;;;4.01;100.00;98534.88;20703955;28;20074;-78
2023/01/16 04:05:14;;;;;;;7.82;0.80;;;;;;;4.02;100.00;98513.28;20694806;28;20054;-78
2023/01/16 04:15:16;;;;;;;5.53;1.00;;;;;;;3.98;100.00;98476.25;20696327;28;20062;-78
2023/01/16 04:25:17;;;;;;;3.60;1.38;;;;;;;4.07;100.00;98446.72;20699228;28;20064;-78
2023/01/16 04:35:19;;;;;;;4.22;0.93;;;;;;;4.30;100.00;98413.41;20699354;28;20058;-78
2023/01/16 04:45:20;;;;;;;6.15;1.23;;;;;;;4.46;100.00;98376.81;20699070;28;20089;-79
2023/01/16 04:55:22;;;;;;;5.93;1.02;;;;;;;4.51;100.00;98352.47;20687226;28;20150;-78
2023/01/16 05:05:23;;;;;;;6.35;1.30;;;;;;;4.42;100.00;98316.41;20698372;28;20054;-78
2023/01/16 05:15:24;;;;;;;7.60;1.33;;;;;;;4.13;100.00;98293.81;20686952;28;20054;-78
2023/01/16 05:25:26;;;;;;;7.07;1.83;;;;;;;4.10;100.00;98257.63;20696327;28;20049;-76
2023/01/16 05:35:27;;;;;;;4.03;1.40;;;;;;;4.13;100.00;98218.72;20680405;28;20220;-76
2023/01/16 05:45:28;;;;;;;8.18;2.17;;;;;;;3.97;100.00;98178.53;20823520;23;20203;-80
2023/01/16 05:55:30;;;;;;;7.38;1.58;;;;;;;3.83;100.00;98151.25;20829340;28;20050;-79
2023/01/16 06:05:31;;;;;;;5.03;1.63;;;;;;;3.67;100.00;98118.88;20786647;28;20132;-80
2023/01/16 06:15:33;;;;;;;10.35;2.75;;;;;;;3.65;100.00;98086.16;20811763;28;20365;-79
2023/01/16 06:25:34;;;;;;;7.40;2.20;;;;;;;3.67;100.00;98061.94;20798867;28;20454;-79
2023/01/16 06:35:36;;;;;;;7.53;1.77;;;;;;;3.52;100.00;98041.63;20796505;28;20050;-80
2023/01/16 06:45:37;;;;;;;3.95;1.10;;;;;;;3.40;100.00;98003.13;20789079;28;20133;-79
2023/01/16 06:55:38;;;;;;;5.10;1.30;;;;;;;3.40;100.00;97982.44;20805414;28;20438;-78
2023/01/16 07:05:40;;;;;;;4.53;1.50;;;;;;;3.42;100.00;97957.41;20763355;23;20061;-79
2023/01/16 07:26:01;;;;;;;4.07;1.15;;;;;;;3.38;100.00;97898.88;20758332;28;20054;-78
2023/01/16 07:36:03;;;;;;;6.15;1.40;;;;;;;3.43;100.00;97881.50;20790823;28;20076;-80
2023/01/16 07:56:49;;;;;;;5.43;1.00;;;;;;;3.62;100.00;97849.03;20682434;28;20042;-79
2023/01/16 08:06:51;;;;;;;6.18;2.20;;;;;;;3.82;100.00;97818.25;20735412;28;20311;-79
2023/01/16 08:16:52;;;;;;;7.75;2.42;;;;;;;4.06;100.00;97795.94;20724955;28;20077;-79
2023/01/16 08:26:53;;;;;;;3.08;1.20;;;;;;;4.08;100.00;97764.84;20744804;28;20045;-79
2023/01/16 08:36:55;;;;;;;4.07;1.10;;;;;;;4.23;100.00;97756.56;20721959;28;20049;-79
2023/01/16 08:57:16;;;;;;;5.70;1.33;;;;;;;4.91;100.00;97710.19;20765126;28;20593;-82
2023/01/16 09:18:03;;;;;;;;;;;;;;;5.58;100.00;97656.59;20712649;28;20070;-79
2023/01/16 09:28:04;;;;;;;181.20;18.17;;;;;;;6.13;100.00;97656.13;20788607;23;20433;-80
2023/01/16 09:38:06;;;;;;;2.20;0.93;;;;;;;6.30;100.00;97656.28;20748688;28;20054;-80
2023/01/16 09:48:07;;;;;;;3.75;0.90;;;;;;;6.30;100.00;97671.88;20748472;28;20052;-81
2023/01/16 10:08:28;;;;;;;3.45;0.85;;;;;;;6.52;100.00;97616.38;20763054;28;20056;-80
2023/01/16 10:18:30;;;;;;;10.00;3.70;;;;;;;6.60;100.00;97588.25;20746914;28;20050;-80
2023/01/16 10:28:31;;;;;;;8.90;3.13;;;;;;;6.86;100.00;97585.34;20776918;28;20096;-80
2023/01/16 10:38:43;;;;;;;6.25;1.70;;;;;;;6.79;100.00;97570.91;20746532;28;20061;-81
2023/01/16 10:59:04;;;;;;;6.03;0.82;;;;;;;6.94;100.00;97515.59;20776073;28;20070;-81
2023/01/16 11:09:06;;;;;;;4.13;0.93;;;;;;;6.95;100.00;97498.25;20774091;28;20038;-80
2023/01/16 11:19:08;;;;;;;3.40;0.95;;;;;;;7.10;100.00;97460.25;20753419;28;20050;-80
2023/01/16 11:29:09;;;;;;;13.88;5.95;;;;;;;7.20;100.00;97433.69;20746601;28;20085;-82
2023/01/16 11:39:11;;;;;;;2.30;0.77;;;;;;;7.38;100.00;97410.28;20755598;28;20095;-82
2023/01/16 11:49:12;;;;;;;0.60;0.30;;;;;;;7.31;100.00;97394.09;20767921;23;20058;-82
2023/01/16 12:10:00;;;;;;;1.00;0.47;;;;;;;7.38;100.00;97327.81;20843462;23;20073;-81
2023/01/16 12:20:01;;;;;;;1.58;0.50;;;;;;;7.42;100.00;97297.25;20824779;28;20103;-81
2023/01/16 12:30:03;;;;;;;1.10;0.40;;;;;;;7.66;100.00;97269.06;20822720;28;20052;-81
2023/01/16 12:40:05;;;;;;;0.95;0.50;;;;;;;7.36;100.00;97240.31;20807841;28;20073;-80
2023/01/16 12:50:06;;;;;;;1.05;0.35;;;;;;;7.46;100.00;97210.25;20819474;28;20096;-82
2023/01/16 13:00:08;;;;;;;1.48;0.38;;;;;;;7.64;100.00;97198.03;20842291;28;20056;-81
2023/01/16 13:20:29;;;;;;;2.45;0.90;;;;;;;7.76;100.00;97142.66;20834095;28;20073;-82
2023/01/16 13:30:31;;;;;;;2.30;0.80;;;;;;;8.03;100.00;97110.72;20821975;28;20080;-81
2023/01/16 13:40:34;;;;;;;2.33;0.65;;;;;;;7.91;100.00;97076.66;20817227;28;20084;-80
2023/01/16 13:50:35;;;;;;;1.50;0.40;;;;;;;7.94;100.00;97060.00;20838437;28;20060;-81
2023/01/16 14:00:37;;;;;;;1.95;0.50;;;;;;;7.90;100.00;97043.69;20823585;28;20069;-78
2023/01/16 14:10:38;;;;;;;1.90;0.50;;;;;;;7.72;100.00;97021.38;20840989;28;20050;-79
2023/01/16 14:20:40;;;;;;;2.63;0.70;;;;;;;7.60;100.00;96989.06;20850922;28;20137;-82
2023/01/16 14:30:41;;;;;;;4.50;1.38;;;;;;;7.46;100.00;96995.06;20831810;28;20121;-82
2023/01/16 15:11:45;;;;;;;6.95;1.50;;;;;;;6.43;100.00;96989.56;20762729;28;20061;-77
2023/01/16 15:21:58;;;;;;;2.53;0.70;;;;;;;6.21;100.00;96976.03;20781253;23;20506;-74
2023/01/16 15:32:01;;;;;;;1.15;0.55;;;;;;;6.10;100.00;96971.41;20757313;28;20061;-72
2023/01/16 15:52:22;;;;;;;1.60;0.60;;;;;;;5.95;100.00;96969.63;20772217;28;20502;-71
2023/01/16 16:02:24;;;;;;;1.30;0.68;;;;;;;5.93;100.00;96980.97;20779100;28;20046;-72
2023/01/16 16:12:26;;;;;;;5.43;1.80;;;;;;;5.82;100.00;97004.88;20771861;28;20488;-73
2023/01/16 16:32:47;;;;;;;3.50;0.98;;;;;;;5.44;100.00;97012.81;20773198;28;20065;-74
2023/01/16 16:42:48;;;;;;;2.72;0.70;;;;;;;5.25;100.00;97014.66;20774864;28;20050;-74
2023/01/16 16:52:50;;;;;;;2.63;0.70;;;;;;;5.13;100.00;97055.81;20776589;28;20057;-75
2023/01/16 17:02:51;;;;;;;2.78;1.23;;;;;;;5.06;100.00;97061.34;20777464;28;20107;-76
2023/01/16 17:12:53;;;;;;;2.15;0.90;;;;;;;4.95;100.00;97067.06;20777090;28;20059;-75
2023/01/16 17:22:55;;;;;;;5.45;2.35;;;;;;;4.98;100.00;97071.25;20767507;28;20056;-75
2023/01/16 17:32:56;;;;;;;2.65;1.00;;;;;;;4.80;100.00;97072.94;20776585;28;20103;-75
2023/01/16 17:53:18;;;;;;;3.60;1.77;;;;;;;4.62;100.00;97090.16;20767946;28;20100;-76
2023/01/16 18:03:19;;;;;;;2.08;0.85;;;;;;;4.41;100.00;97115.28;20763109;28;20391;-76
2023/01/16 18:23:41;;;;;;;2.17;0.80;;;;;;;4.22;100.00;97164.44;20769820;28;20470;-78
2023/01/16 18:33:43;;;;;;;2.28;0.70;;;;;;;3.98;100.00;97188.75;20763275;28;20528;-77
2023/01/16 19:04:25;;;;;;;3.03;1.10;;;;;;;3.96;100.00;97266.44;20764298;28;20124;-76
2023/01/16 19:14:27;;;;;;;2.97;1.17;;;;;;;3.88;100.00;97278.00;20762463;28;20060;-76
2023/01/16 19:24:30;;;;;;;5.93;2.45;;;;;;;3.89;100.00;97287.47;20757875;28;20057;-77
2023/01/16 19:34:34;;;;;;;4.90;1.80;;;;;;;3.81;100.00;97298.94;20760047;28;20053;-76
2023/01/16 19:54:57;;;;;;;4.15;1.40;;;;;;;3.90;100.00;97322.81;20746912;28;20057;-74
2023/01/16 20:04:58;;;;;;;5.75;1.48;;;;;;;3.81;100.00;97355.03;20744000;28;20084;-75
2023/01/16 20:15:00;;;;;;;4.85;1.77;;;;;;;3.77;100.00;97367.25;20757907;28;20045;-76
2023/01/16 20:25:01;;;;;;;7.25;2.80;;;;;;;3.84;100.00;97376.47;20767132;28;20103;-76
2023/01/16 20:35:03;;;;;;;7.90;1.80;;;;;;;3.86;100.00;97379.84;20779099;28;20485;-75
2023/01/16 20:55:24;;;;;;;6.97;1.95;;;;;;;3.77;100.00;97384.53;20767635;28;20403;-74
2023/01/16 21:05:40;;;;;;;5.43;1.90;;;;;;;3.67;100.00;97399.53;20768353;28;20053;-73
2023/01/16 21:15:41;;;;;;;11.18;2.35;;;;;;;3.63;100.00;97392.78;20766763;28;20057;-72
2023/01/16 21:25:44;;;;;;;7.22;1.75;;;;;;;3.73;100.00;97414.00;20768562;28;20061;-71
2023/01/16 21:35:45;;;;;;;7.57;2.35;;;;;;;3.70;100.00;97419.28;20757006;28;20045;-71
2023/01/16 21:56:06;;;;;;;5.13;1.92;;;;;;;3.75;100.00;97459.63;20756548;28;20516;-71
2023/01/16 22:06:08;;;;;;;5.00;1.65;;;;;;;3.79;100.00;97471.56;20763865;28;20057;-70
2023/01/16 22:26:35;;;;;;;4.00;1.38;;;;;;;3.51;100.00;97491.53;20741577;28;20058;-69
2023/01/16 22:36:36;;;;;;;7.55;1.70;;;;;;;3.54;100.00;97507.78;20759993;28;20177;-69
2023/01/16 22:46:37;;;;;;;5.55;1.80;;;;;;;3.59;100.00;97510.19;20756512;28;20414;-70
2023/01/16 22:56:41;;;;;;;6.10;2.17;;;;;;;3.62;100.00;97528.22;20762347;28;20402;-69
2023/01/16 23:06:43;;;;;;;10.73;3.40;;;;;;;3.64;100.00;97531.63;20753956;28;20058;-68
2023/01/16 23:16:44;;;;;;;7.93;2.50;;;;;;;3.56;100.00;97542.22;20767660;28;20054;-69
2023/01/16 23:26:45;;;;;;;6.50;2.10;;;;;;;3.52;100.00;97539.78;20756096;28;20145;-69
2023/01/16 23:36:48;;;;;;;8.50;2.25;;;;;;;3.42;100.00;97556.50;20763422;28;20057;-71
2023/01/16 23:46:49;;;;;;;7.20;2.10;;;;;;;3.19;100.00;97568.41;20757598;28;20050;-71
2023/01/16 23:56:51;;;;;;;5.72;2.55;;;;;;;3.21;100.00;97570.94;20770492;28;20081;-71
